createdAt,value
2022-08-17T00:02:26.058Z,26.05
2022-08-17T00:04:57.859Z,26.05
2022-08-17T00:07:24.418Z,26.05
2022-08-17T00:09:50.918Z,26.04
2022-08-17T00:12:43.098Z,26.00
2022-08-17T00:15:10.314Z,25.98
2022-08-17T00:17:37.804Z,25.96
2022-08-17T00:20:05.042Z,25.93
2022-08-17T00:22:36.081Z,25.91
2022-08-17T00:25:10.286Z,25.89
2022-08-17T00:27:37.128Z,25.86
2022-08-17T00:30:06.774Z,25.83
2022-08-17T00:33:12.651Z,25.81
2022-08-17T00:35:30.312Z,25.81
2022-08-17T00:37:56.824Z,25.81
2022-08-17T00:40:24.934Z,25.81
2022-08-17T00:42:52.618Z,25.81
2022-08-17T00:45:21.130Z,25.77
2022-08-17T00:47:48.008Z,25.75
2022-08-17T00:50:17.665Z,25.73
2022-08-17T00:52:56.355Z,25.70
2022-08-17T00:55:25.504Z,25.70
2022-08-17T00:57:56.860Z,25.67
2022-08-17T01:00:33.503Z,25.67
2022-08-17T01:03:19.803Z,25.64
2022-08-17T01:05:51.312Z,25.65
2022-08-17T01:08:22.209Z,25.62
2022-08-17T01:11:00.186Z,25.61
2022-08-17T01:13:40.811Z,25.60
2022-08-17T01:16:18.124Z,25.56
2022-08-17T01:18:48.139Z,25.51
2022-08-17T01:21:24.534Z,25.47
2022-08-17T01:23:56.324Z,25.43
2022-08-17T01:26:23.613Z,25.40
2022-08-17T01:28:53.934Z,25.37
2022-08-17T01:31:24.166Z,25.37
2022-08-17T01:33:53.084Z,25.33
2022-08-17T01:36:19.743Z,25.31
2022-08-17T01:38:46.363Z,25.28
2022-08-17T01:41:16.483Z,25.24
2022-08-17T01:43:51.982Z,25.17
2022-08-17T01:46:26.996Z,25.14
2022-08-17T01:48:54.264Z,25.11
2022-08-17T01:51:21.734Z,25.09
2022-08-17T01:53:52.576Z,25.09
2022-08-17T01:56:22.473Z,25.05
2022-08-17T01:58:49.002Z,25.02
2022-08-17T02:01:18.954Z,25.01
2022-08-17T02:03:53.147Z,25.01
2022-08-17T02:06:27.503Z,25.01
2022-08-17T02:09:01.477Z,25.01
2022-08-17T02:11:30.479Z,25.04
2022-08-17T02:14:03.592Z,25.05
2022-08-17T02:16:37.110Z,25.00
2022-08-17T02:19:11.069Z,24.97
2022-08-17T02:21:38.938Z,24.95
2022-08-17T02:24:13.237Z,24.90
2022-08-17T02:26:39.906Z,24.87
2022-08-17T02:29:07.228Z,24.84
2022-08-17T02:31:35.474Z,24.82
2022-08-17T02:34:06.145Z,24.79
2022-08-17T02:36:36.368Z,24.75
2022-08-17T02:39:05.460Z,24.74
2022-08-17T02:41:32.793Z,24.74
2022-08-17T02:43:59.497Z,24.73
2022-08-17T02:46:26.265Z,24.70
2022-08-17T02:48:52.810Z,24.69
2022-08-17T02:51:19.417Z,24.67
2022-08-17T02:53:46.736Z,24.64
2022-08-17T02:56:13.682Z,24.61
2022-08-17T02:58:40.198Z,24.60
2022-08-17T03:01:10.009Z,24.60
2022-08-17T03:03:38.823Z,24.58
2022-08-17T03:06:07.355Z,24.58
2022-08-17T03:08:34.757Z,24.57
2022-08-17T03:11:01.611Z,24.58
2022-08-17T03:13:30.740Z,24.58
2022-08-17T03:15:57.317Z,24.57
2022-08-17T03:18:26.299Z,24.57
2022-08-17T03:20:59.341Z,24.58
2022-08-17T03:23:31.095Z,24.57
2022-08-17T03:25:58.790Z,24.57
2022-08-17T03:28:26.047Z,24.57
2022-08-17T03:30:52.889Z,24.56
2022-08-17T03:33:21.497Z,24.58
2022-08-17T03:35:48.371Z,24.57
2022-08-17T03:38:17.008Z,24.58
2022-08-17T03:40:56.997Z,24.58
2022-08-17T03:43:32.271Z,24.59
2022-08-17T03:46:34.266Z,24.61
2022-08-17T03:49:26.240Z,24.62
2022-08-17T03:52:15.882Z,24.62
2022-08-17T03:55:02.066Z,24.61
2022-08-17T03:57:29.166Z,24.60
2022-08-17T03:59:56.294Z,24.59
2022-08-17T04:02:29.618Z,24.58
2022-08-17T04:04:56.723Z,24.58
2022-08-17T04:07:26.180Z,24.60
2022-08-17T04:09:52.852Z,24.60
2022-08-17T04:12:22.026Z,24.59
2022-08-17T04:14:54.980Z,24.59
2022-08-17T04:17:28.322Z,24.58
2022-08-17T04:19:55.609Z,24.59
2022-08-17T04:22:30.978Z,24.58
2022-08-17T04:25:05.075Z,24.58
2022-08-17T04:27:31.727Z,24.55
2022-08-17T04:29:58.705Z,24.51
2022-08-17T04:33:00.767Z,24.46
2022-08-17T04:35:18.797Z,24.44
2022-08-17T04:37:45.407Z,24.41
2022-08-17T04:40:30.626Z,24.44
2022-08-17T04:43:30.881Z,24.42
2022-08-17T04:46:00.533Z,24.43
2022-08-17T04:48:36.365Z,24.43
2022-08-17T04:51:11.246Z,24.47
2022-08-17T04:53:45.190Z,24.50
2022-08-17T04:56:16.655Z,24.52
2022-08-17T04:58:49.730Z,24.56
2022-08-17T05:01:23.457Z,24.61
2022-08-17T05:03:54.295Z,24.66
2022-08-17T05:06:21.330Z,24.69
2022-08-17T05:08:47.934Z,24.71
2022-08-17T05:11:14.945Z,24.69
2022-08-17T05:13:41.958Z,24.64
2022-08-17T05:16:09.140Z,24.62
2022-08-17T05:18:37.230Z,24.58
2022-08-17T05:21:04.334Z,24.53
2022-08-17T05:23:42.524Z,24.52
2022-08-17T05:26:26.387Z,24.53
2022-08-17T05:29:02.607Z,24.52
2022-08-17T05:31:30.811Z,24.53
2022-08-17T05:34:01.795Z,24.50
2022-08-17T05:36:42.446Z,24.51
2022-08-17T05:39:16.462Z,24.53
2022-08-17T05:41:45.768Z,24.57
2022-08-17T05:44:14.290Z,24.62
2022-08-17T05:46:44.050Z,24.66
2022-08-17T05:49:13.163Z,24.70
2022-08-17T05:52:18.801Z,24.71
2022-08-17T05:55:10.463Z,24.70
2022-08-17T05:58:03.924Z,24.68
2022-08-17T06:00:42.100Z,24.67
2022-08-17T06:03:49.367Z,24.67
2022-08-17T06:06:31.545Z,24.68
2022-08-17T06:08:58.150Z,24.67
2022-08-17T06:11:36.927Z,24.68
2022-08-17T06:14:09.866Z,24.73
2022-08-17T06:16:44.016Z,24.76
2022-08-17T06:19:32.046Z,24.79
2022-08-17T06:22:00.503Z,24.84
2022-08-17T06:24:44.037Z,24.86
2022-08-17T06:27:38.769Z,24.90
2022-08-17T06:30:25.762Z,24.94
2022-08-17T06:32:55.372Z,24.97
2022-08-17T06:35:31.888Z,25.00
2022-08-17T06:38:33.955Z,25.06
2022-08-17T06:41:04.249Z,25.15
2022-08-17T06:44:03.051Z,25.20
2022-08-17T06:46:41.399Z,25.31
2022-08-17T06:49:21.886Z,25.37
2022-08-17T06:51:57.358Z,25.45
2022-08-17T06:54:40.608Z,25.52
2022-08-17T06:57:23.219Z,25.60
2022-08-17T06:59:59.236Z,25.64
2022-08-17T07:03:02.681Z,25.68
2022-08-17T07:05:36.514Z,25.74
2022-08-17T07:08:14.581Z,25.79
2022-08-17T07:10:47.549Z,25.80
2022-08-17T07:13:25.496Z,25.82
2022-08-17T07:15:58.939Z,25.82
2022-08-17T07:18:29.685Z,25.84
2022-08-17T07:21:08.362Z,25.86
2022-08-17T07:24:01.041Z,25.86
2022-08-17T07:26:28.569Z,25.87
2022-08-17T07:28:58.433Z,25.89
2022-08-17T07:31:28.496Z,25.93
2022-08-17T07:34:22.979Z,25.97
2022-08-17T07:37:03.376Z,26.03
2022-08-17T07:39:30.322Z,26.08
2022-08-17T07:42:05.086Z,26.12
2022-08-17T07:44:50.407Z,26.17
2022-08-17T07:47:35.959Z,26.24
2022-08-17T07:50:03.023Z,26.29
2022-08-17T07:52:50.524Z,26.34
2022-08-17T07:55:34.981Z,26.42
2022-08-17T07:58:01.982Z,26.49
2022-08-17T08:00:31.961Z,26.55
2022-08-17T08:03:05.554Z,26.58
2022-08-17T08:05:50.037Z,26.63
2022-08-17T08:08:24.317Z,26.66
2022-08-17T08:11:04.546Z,26.65
2022-08-17T08:13:42.436Z,26.64
2022-08-17T08:16:24.551Z,26.62
2022-08-17T08:18:58.335Z,26.60
2022-08-17T08:21:46.345Z,26.61
2022-08-17T08:24:43.495Z,26.59
2022-08-17T08:27:28.246Z,26.54
2022-08-17T08:29:55.188Z,26.48
2022-08-17T08:32:53.977Z,26.39
2022-08-17T08:35:53.584Z,26.33
2022-08-17T08:38:28.228Z,26.26
2022-08-17T08:41:16.437Z,26.21
2022-08-17T08:44:12.104Z,26.21
2022-08-17T08:47:00.722Z,26.21
2022-08-17T08:50:03.449Z,26.22
2022-08-17T08:52:31.001Z,26.33
2022-08-17T08:55:08.626Z,26.39
2022-08-17T08:57:47.118Z,26.48
2022-08-17T09:00:15.970Z,26.63
2022-08-17T09:03:20.094Z,26.76
2022-08-17T09:06:33.352Z,26.84
2022-08-17T09:09:18.054Z,27.03
2022-08-17T09:12:02.412Z,27.20
2022-08-17T09:15:21.523Z,27.33
2022-08-17T09:19:00.418Z,27.36
2022-08-17T09:21:28.735Z,27.43
2022-08-17T09:24:21.003Z,27.53
2022-08-17T09:27:20.110Z,27.63
2022-08-17T09:29:58.384Z,27.72
2022-08-17T09:32:34.057Z,27.78
2022-08-17T09:35:16.142Z,27.81
2022-08-17T09:38:05.910Z,27.85
2022-08-17T09:40:45.004Z,27.87
2022-08-17T09:43:49.124Z,27.88
2022-08-17T09:46:34.692Z,27.98
2022-08-17T09:49:31.488Z,28.07
2022-08-17T09:52:05.649Z,28.15
2022-08-17T09:54:39.660Z,28.17
2022-08-17T09:57:31.489Z,28.16
2022-08-17T10:00:10.042Z,28.13
2022-08-17T10:03:29.863Z,28.13
2022-08-17T10:06:13.296Z,28.16
2022-08-17T10:08:52.985Z,28.16
2022-08-17T10:12:10.253Z,28.12
2022-08-17T10:15:05.069Z,28.11
2022-08-17T10:17:50.590Z,28.08
2022-08-17T10:20:25.563Z,28.04
2022-08-17T10:23:22.453Z,28.03
2022-08-17T10:26:04.570Z,27.99
2022-08-17T10:28:44.252Z,27.93
2022-08-17T10:31:34.226Z,27.89
2022-08-17T10:34:38.694Z,27.84
2022-08-17T10:37:28.263Z,27.81
2022-08-17T10:40:26.463Z,27.81
2022-08-17T10:43:44.711Z,27.75
2022-08-17T10:46:57.406Z,27.65
2022-08-17T10:49:32.552Z,27.60
2022-08-17T10:52:03.514Z,27.57
2022-08-17T10:54:45.428Z,27.54
2022-08-17T10:57:27.325Z,27.52
2022-08-17T10:59:58.467Z,27.53
2022-08-17T11:02:49.349Z,27.50
2022-08-17T11:05:28.927Z,27.49
2022-08-17T11:08:19.471Z,27.46
2022-08-17T11:11:06.690Z,27.45
2022-08-17T11:13:48.395Z,27.40
2022-08-17T11:16:40.849Z,27.36
2022-08-17T11:19:13.101Z,27.34
2022-08-17T11:22:12.100Z,27.29
2022-08-17T11:24:48.028Z,27.28
2022-08-17T11:27:31.715Z,27.27
2022-08-17T11:30:03.279Z,27.29
2022-08-17T11:32:33.327Z,27.33
2022-08-17T11:35:45.035Z,27.33
2022-08-17T11:38:16.024Z,27.36
2022-08-17T11:41:18.673Z,27.33
2022-08-17T11:44:24.713Z,27.31
2022-08-17T11:47:41.167Z,27.33
2022-08-17T11:50:35.615Z,27.35
2022-08-17T11:53:07.051Z,27.39
2022-08-17T11:55:38.555Z,27.35
2022-08-17T11:58:38.573Z,27.33
2022-08-17T12:01:23.261Z,27.34
2022-08-17T12:03:58.754Z,27.32
2022-08-17T12:06:46.635Z,27.31
2022-08-17T12:09:22.117Z,27.30
2022-08-17T12:12:13.461Z,27.28
2022-08-17T12:17:40.193Z,27.35
2022-08-17T12:20:31.680Z,27.37
2022-08-17T12:23:30.208Z,27.42
2022-08-17T12:26:19.796Z,27.46
2022-08-17T12:28:57.201Z,27.46
2022-08-17T12:31:31.108Z,27.43
2022-08-17T12:34:03.914Z,27.43
2022-08-17T12:36:31.984Z,27.41
2022-08-17T12:39:14.317Z,27.40
2022-08-17T12:41:52.040Z,27.41
2022-08-17T12:44:23.124Z,27.40
2022-08-17T12:46:53.178Z,27.36
2022-08-17T12:49:24.625Z,27.34
2022-08-17T12:51:56.950Z,27.33
2022-08-17T12:54:31.575Z,27.27
2022-08-17T12:57:05.456Z,27.20
2022-08-17T12:59:33.059Z,27.15
2022-08-17T13:02:00.887Z,27.10
2022-08-17T13:04:29.512Z,27.06
2022-08-17T13:06:58.205Z,27.00
2022-08-17T13:09:35.334Z,26.94
2022-08-17T13:12:03.291Z,26.89
2022-08-17T13:14:32.684Z,26.86
2022-08-17T13:17:07.153Z,26.81
2022-08-17T13:19:47.974Z,26.74
2022-08-17T13:22:14.666Z,26.70
2022-08-17T13:25:09.211Z,26.64
2022-08-17T13:27:36.044Z,26.67
2022-08-17T13:30:11.590Z,26.67
2022-08-17T13:32:46.474Z,26.66
2022-08-17T13:35:32.223Z,26.59
2022-08-17T13:38:12.502Z,26.53
2022-08-17T13:40:52.927Z,26.47
2022-08-17T13:43:48.435Z,26.44
2022-08-17T13:46:21.511Z,26.46
2022-08-17T13:49:01.910Z,26.49
2022-08-17T13:51:35.467Z,26.50
2022-08-17T13:54:06.510Z,26.51
2022-08-17T13:56:40.742Z,26.50
2022-08-17T13:59:14.653Z,26.52
2022-08-17T14:01:48.474Z,26.52
2022-08-17T14:04:27.758Z,26.51
2022-08-17T14:07:01.188Z,26.46
2022-08-17T14:09:37.185Z,26.47
2022-08-17T14:12:08.841Z,26.45
2022-08-17T14:14:40.706Z,26.43
2022-08-17T14:17:07.983Z,26.43
2022-08-17T14:19:35.114Z,26.45
2022-08-17T14:22:02.107Z,26.47
2022-08-17T14:24:32.690Z,26.50
2022-08-17T14:27:01.450Z,26.53
2022-08-17T14:29:29.780Z,26.55
2022-08-17T14:31:57.765Z,26.55
2022-08-17T14:34:25.236Z,26.53
2022-08-17T14:36:52.314Z,26.49
2022-08-17T14:39:19.150Z,26.48
2022-08-17T14:41:46.310Z,26.48
2022-08-17T14:44:13.941Z,26.44
2022-08-17T14:46:42.886Z,26.38
2022-08-17T14:49:11.446Z,26.31
2022-08-17T14:51:43.533Z,26.25
2022-08-17T14:54:33.552Z,26.22
2022-08-17T14:57:24.745Z,26.23
2022-08-17T14:59:50.707Z,26.23
2022-08-17T15:02:29.276Z,26.19
2022-08-17T15:05:03.959Z,26.12
2022-08-17T15:07:31.525Z,26.07
2022-08-17T15:10:00.914Z,26.07
2022-08-17T15:12:32.242Z,26.10
2022-08-17T15:15:00.816Z,26.14
2022-08-17T15:17:44.662Z,26.20
2022-08-17T15:20:25.272Z,26.24
2022-08-17T15:22:55.927Z,26.26
2022-08-17T15:25:25.125Z,26.28
2022-08-17T15:27:52.167Z,26.33
2022-08-17T15:30:19.155Z,26.36
2022-08-17T15:32:51.597Z,26.39
2022-08-17T15:35:27.383Z,26.41
2022-08-17T15:37:56.430Z,26.40
2022-08-17T15:40:23.007Z,26.39
2022-08-17T15:42:51.015Z,26.41
2022-08-17T15:45:24.819Z,26.41
2022-08-17T15:47:52.528Z,26.37
2022-08-17T15:50:19.426Z,26.36
2022-08-17T15:52:47.457Z,26.40
2022-08-17T15:55:15.499Z,26.47
2022-08-17T15:57:42.305Z,26.55
2022-08-17T16:00:09.692Z,26.58
2022-08-17T16:03:44.913Z,26.56
2022-08-17T16:05:28.572Z,26.51
2022-08-17T16:07:59.569Z,26.49
2022-08-17T16:10:35.494Z,26.48
2022-08-17T16:13:17.553Z,26.53
2022-08-17T16:15:47.794Z,26.53
2022-08-17T16:18:20.507Z,26.53
2022-08-17T16:20:47.237Z,26.55
2022-08-17T16:23:20.080Z,26.57
2022-08-17T16:25:53.684Z,26.60
2022-08-17T16:28:21.792Z,26.60
2022-08-17T16:30:48.282Z,26.58
2022-08-17T16:33:16.922Z,26.55
2022-08-17T16:35:43.490Z,26.53
2022-08-17T16:38:10.854Z,26.53
2022-08-17T16:40:38.038Z,26.53
2022-08-17T16:43:12.010Z,26.50
2022-08-17T16:45:39.929Z,26.46
2022-08-17T16:48:08.356Z,26.43
2022-08-17T16:50:35.462Z,26.40
2022-08-17T16:53:11.160Z,26.35
2022-08-17T16:55:38.462Z,26.32
2022-08-17T16:58:06.459Z,26.28
2022-08-17T17:00:33.629Z,26.26
2022-08-17T17:03:26.054Z,26.21
2022-08-17T17:06:01.674Z,26.21
2022-08-17T17:08:55.884Z,26.16
2022-08-17T17:11:31.234Z,26.17
2022-08-17T17:14:09.058Z,26.17
2022-08-17T17:16:47.714Z,26.15
2022-08-17T17:19:35.183Z,26.11
2022-08-17T17:22:16.339Z,26.06
2022-08-17T17:25:14.370Z,26.03
2022-08-17T17:27:59.694Z,26.05
2022-08-17T17:30:33.103Z,26.07
2022-08-17T17:33:29.733Z,26.05
2022-08-17T17:36:07.219Z,26.07
2022-08-17T17:38:49.450Z,26.09
2022-08-17T17:41:26.342Z,26.07
2022-08-17T17:44:01.834Z,26.05
2022-08-17T17:46:37.943Z,26.03
2022-08-17T17:49:05.876Z,26.00
2022-08-17T17:51:55.054Z,26.02
2022-08-17T17:54:49.160Z,25.96
2022-08-17T17:57:44.192Z,25.91
2022-08-17T18:01:04.695Z,25.90
2022-08-17T18:04:01.466Z,25.85
2022-08-17T18:06:49.846Z,25.84
2022-08-17T18:09:38.389Z,25.80
2022-08-17T18:12:19.768Z,25.80
2022-08-17T18:15:00.113Z,25.78
2022-08-17T18:17:29.139Z,25.74
2022-08-17T18:19:56.107Z,25.69
2022-08-17T18:22:23.735Z,25.62
2022-08-17T18:24:57.995Z,25.59
2022-08-17T18:27:36.568Z,25.56
2022-08-17T18:30:27.208Z,25.50
2022-08-17T18:32:53.810Z,25.47
2022-08-17T18:35:21.680Z,25.44
2022-08-17T18:37:50.299Z,25.43
2022-08-17T18:40:26.447Z,25.42
2022-08-17T18:43:52.659Z,25.31
2022-08-17T18:46:28.194Z,25.20
2022-08-17T18:49:06.750Z,25.13
2022-08-17T18:51:43.306Z,25.09
2022-08-17T18:54:23.404Z,25.08
2022-08-17T18:56:56.642Z,25.06
2022-08-17T18:59:28.888Z,25.02
2022-08-17T19:02:24.928Z,24.99
2022-08-17T19:05:07.945Z,24.95
2022-08-17T19:07:44.258Z,24.90
2022-08-17T19:10:51.323Z,24.83
2022-08-17T19:13:28.470Z,24.79
2022-08-17T19:16:14.671Z,24.74
2022-08-17T19:19:19.566Z,24.70
2022-08-17T19:22:17.009Z,24.66
2022-08-17T19:25:05.967Z,24.64
2022-08-17T19:28:03.071Z,24.59
2022-08-17T19:30:30.102Z,24.56
2022-08-17T19:33:05.460Z,24.50
2022-08-17T19:35:46.598Z,24.46
2022-08-17T19:38:44.559Z,24.42
2022-08-17T19:41:25.645Z,24.39
2022-08-17T19:44:16.970Z,24.34
2022-08-17T19:46:56.218Z,24.29
2022-08-17T19:49:48.988Z,24.26
2022-08-17T19:52:23.995Z,24.21
2022-08-17T19:55:16.931Z,24.18
2022-08-17T19:58:18.010Z,24.17
2022-08-17T20:00:50.597Z,24.15
2022-08-17T20:03:38.463Z,24.12
2022-08-17T20:06:13.179Z,24.11
2022-08-17T20:08:53.727Z,24.11
2022-08-17T20:11:31.389Z,24.08
2022-08-17T20:14:14.320Z,24.04
2022-08-17T20:16:41.170Z,23.99
2022-08-17T20:19:19.715Z,23.92
2022-08-17T20:21:53.904Z,23.85
2022-08-17T20:24:52.949Z,23.80
2022-08-17T20:27:31.331Z,23.77
2022-08-17T20:30:11.516Z,23.76
2022-08-17T20:32:48.535Z,23.74
2022-08-17T20:35:16.834Z,23.71
2022-08-17T20:37:53.274Z,23.61
2022-08-17T20:40:25.925Z,23.46
2022-08-17T20:42:52.811Z,23.33
2022-08-17T20:45:23.336Z,23.24
2022-08-17T20:48:21.619Z,23.20
2022-08-17T20:50:51.350Z,23.24
2022-08-17T20:53:58.254Z,23.31
2022-08-17T20:56:43.335Z,23.35
2022-08-17T20:59:30.412Z,23.32
2022-08-17T21:02:18.425Z,23.29
2022-08-17T21:04:52.886Z,23.25
2022-08-17T21:07:43.499Z,23.24
2022-08-17T21:10:10.276Z,23.27
2022-08-17T21:12:52.714Z,23.29
2022-08-17T21:15:44.314Z,23.34
2022-08-17T21:18:19.786Z,23.36
2022-08-17T21:21:03.619Z,23.36
2022-08-17T21:24:04.090Z,23.38
2022-08-17T21:26:57.665Z,23.36
2022-08-17T21:29:31.310Z,23.37
2022-08-17T21:31:59.543Z,23.29
2022-08-17T21:34:34.691Z,23.15
2022-08-17T21:37:19.834Z,23.05
2022-08-17T21:39:54.962Z,22.99
2022-08-17T21:42:34.362Z,22.95
2022-08-17T21:45:10.087Z,22.92
2022-08-17T21:47:40.858Z,22.94
2022-08-17T21:50:21.798Z,22.95
2022-08-17T21:52:50.007Z,22.98
2022-08-17T21:55:21.967Z,22.99
2022-08-17T21:57:52.761Z,23.00
2022-08-17T22:00:32.135Z,23.03
2022-08-17T22:03:23.793Z,23.04
2022-08-17T22:05:51.340Z,23.09
2022-08-17T22:08:22.266Z,23.11
2022-08-17T22:10:51.111Z,23.14
2022-08-17T22:13:29.352Z,23.18
2022-08-17T22:16:05.931Z,23.21
2022-08-17T22:18:53.695Z,23.25
2022-08-17T22:21:20.725Z,23.25
2022-08-17T22:24:20.305Z,23.25
2022-08-17T22:27:03.489Z,23.28
2022-08-17T22:29:53.206Z,23.31
2022-08-17T22:32:35.319Z,23.31
2022-08-17T22:35:32.874Z,23.30
2022-08-17T22:38:32.412Z,23.32
2022-08-17T22:41:26.745Z,23.35
2022-08-17T22:43:57.378Z,23.39
2022-08-17T22:46:25.540Z,23.42
2022-08-17T22:48:56.724Z,23.41
2022-08-17T22:51:28.354Z,23.44
2022-08-17T22:54:20.222Z,23.50
2022-08-17T22:57:18.602Z,23.52
2022-08-17T22:59:50.470Z,23.55
2022-08-17T23:02:26.561Z,23.59
2022-08-17T23:05:15.686Z,23.58
2022-08-17T23:07:44.581Z,23.62
2022-08-17T23:10:12.637Z,23.65
2022-08-17T23:12:39.907Z,23.68
2022-08-17T23:15:14.763Z,23.72
2022-08-17T23:17:42.075Z,23.77
2022-08-17T23:20:14.007Z,23.78
2022-08-17T23:22:51.071Z,23.79
2022-08-17T23:25:31.911Z,23.79
2022-08-17T23:28:01.579Z,23.71
2022-08-17T23:30:31.276Z,23.65
2022-08-17T23:33:25.591Z,23.58
2022-08-17T23:35:53.064Z,23.51
2022-08-17T23:38:19.669Z,23.45
2022-08-17T23:40:46.170Z,23.42
2022-08-17T23:43:23.693Z,23.42
2022-08-17T23:45:55.249Z,23.45
2022-08-17T23:48:35.115Z,23.48
2022-08-17T23:51:12.291Z,23.51
2022-08-17T23:53:47.278Z,23.56
2022-08-17T23:56:14.653Z,23.60
2022-08-17T23:58:43.046Z,23.64
